Anderson Regional Airport Anderson US
ICAO: KAND
IATA: AND
Category: Medium
Scheduled Services: No

Elevation: 782 ft
TransAlt. 18000 ft.

Airport Communications:
GREER APP/DEP:118.8
ASOS:120.675
CTAF:123.6
RDO:122.2
UNICOM:122.95

KAND Zoom In..

Runways:

(A) RW 05 length 6002 ft width 149 ft
ILS 111.90 / hdg 51

(B) RW 17 length 4996 ft width 149 ft
---- / hdg 171

(C) RW 23 length 6002 ft width 149 ft
---- / hdg 231

(D) RW 35 length 4996 ft width 149 ft
---- / hdg 351

Location; KAND
Day. 23 / Time. 09.56 Zulu
* Altimeter: 29.81
* Temperature: 21° c. 69.8°f.
* Wind from: 060° Speed 06 kn.
Dewpoint: 20° c.
Visibility: 10 Statute Miles.
Clouds: Broken 400 ft.
Clouds: Overcast 6500 ft.

KAND 230956Z AUTO 06006KT 10SM BKN004 OVC065 21/20 A2981 RMK AO2 SLP085 T02110200


Wind From 060°
Speed 06 kn.

 
 
jpsmedia.com for Web Design worldairports.se 2018   terms of use